Aérodrome :
LOGIN :

S'inscrire | Disclaimer

   EN    FR    IT 

 










Légende :    VFR   VFR Marginal   IFR   IFR Intensif   IFR Très Intensif
Visi : 
Plafond : 
>= 8 km
>= 3000ft
5 à 8 km
1000 à 3000 ft
1500m à 5 km
500 à 1000 ft
800 à 1500m
200 à 500 ft
< 800m
< 200 ft
Symboles :   Orages  Brouillard  Fortes neiges  Fortes précipitations  Vent > 20 kt
SIGMETs :   Divers  Orages  Givrage  Turbulence  Onde Orograph.  Cendres Volcan.






- Altitude de l'aérodrome : 13 ft
- Code IATA : CAG


LIEE - Cagliari Elmas

DERNIER METAR :
  • 190350Z 35008KT CAVOK 09/06 Q1025

METARs EXPIRÉS :
  • 190320Z 35010KT CAVOK 08/06 Q1025
  • 190250Z 35008KT CAVOK 08/06 Q1025
  • 190220Z 35010KT CAVOK 09/06 Q1025
  • 190150Z 35010KT 9999 FEW020 09/06 Q1026

TAF TAF LIEE
Valide du 19 à 00h jusqu'au 20 à 00h UTC


182300Z 1900/1924 33012KT 9999 FEW030
BECMG 1907/1909 33018G28KT
BECMG 1920/1922 33013KT



MET'MAP, la Météo Aéronautique d'un coup d'oeil ! - Copyright ORBIFLY Décembre 2007 - Disclaimer

ORBIFLY MET'MAP TEAM :

Programmation & Développement : Alexandra Zaïnal
Sur une idée originale de : Baudouin d'Aumeries
Assistance à la programmation : Marc-Olivier Méhu
Soutien technique & logistique : Manuel Goepfert

Contact : metmap@orbifly.com




SOURCES & CREDITS :

   NOAA